Time;durP1;ratioP1;P1;durP2;ratioP2;P2;SDS_P1;SDS_P2;PMS_P1;PMS_P2;Temp;Humidity;BMP_temperature;BMP_pressure;BME280_temperature;BME280_humidity;BME280_pressure;Samples;Min_cycle;Max_cycle;Signal;HPM_P1;HPM_P2
2022/10/03 00:01:46;;;;;;;17.67;3.07;;;11.40;99.90;;;;;;5025091;28;20444;-79
2022/10/03 00:04:27;;;;;;;13.33;2.47;;;11.40;99.90;;;;;;5014056;28;20211;-79
2022/10/03 00:07:05;;;;;;;14.63;3.13;;;11.30;99.90;;;;;;5009251;28;20220;-79
2022/10/03 00:09:52;;;;;;;14.77;3.23;;;11.40;99.90;;;;;;5015151;28;20560;-79
2022/10/03 00:12:41;;;;;;;13.23;2.40;;;11.40;99.90;;;;;;5019957;28;20408;-79
2022/10/03 00:15:15;;;;;;;11.10;2.87;;;11.50;99.90;;;;;;5028429;28;20638;-78
2022/10/03 00:17:56;;;;;;;15.40;2.33;;;11.70;99.90;;;;;;5027966;28;20594;-79
2022/10/03 00:20:48;;;;;;;14.33;2.70;;;11.60;99.90;;;;;;5008720;28;20201;-79
2022/10/03 00:23:23;;;;;;;12.10;2.57;;;11.60;99.90;;;;;;5023369;28;20204;-79
2022/10/03 00:25:59;;;;;;;28.40;3.07;;;11.60;99.90;;;;;;5030436;28;20585;-79
2022/10/03 00:28:49;;;;;;;12.33;2.57;;;11.60;99.90;;;;;;5010477;28;20196;-79
2022/10/03 00:31:23;;;;;;;13.97;2.70;;;11.60;99.90;;;;;;5018051;28;20200;-79
2022/10/03 00:34:03;;;;;;;9.87;2.30;;;11.60;99.90;;;;;;5023200;28;20192;-79
2022/10/03 00:36:39;;;;;;;13.87;2.87;;;11.60;99.90;;;;;;5009404;28;20569;-78
2022/10/03 00:39:38;;;;;;;9.17;2.40;;;11.60;99.90;;;;;;5023201;28;20203;-79
2022/10/03 00:42:43;;;;;;;14.23;2.10;;;11.70;99.90;;;;;;5020964;28;20203;-78
2022/10/03 00:45:39;;;;;;;10.87;2.37;;;11.60;99.90;;;;;;5037404;28;20208;-79
2022/10/03 00:48:37;;;;;;;10.53;2.60;;;11.70;99.90;;;;;;5013341;28;20209;-79
2022/10/03 00:51:24;;;;;;;10.93;2.23;;;11.60;99.90;;;;;;5022319;28;20670;-79
2022/10/03 00:54:05;;;;;;;9.87;2.03;;;11.60;99.90;;;;;;5033405;28;20212;-79
2022/10/03 00:57:02;;;;;;;13.27;2.30;;;11.60;99.90;;;;;;5031121;28;20215;-79
2022/10/03 00:59:42;;;;;;;9.40;2.47;;;11.60;99.90;;;;;;5025198;28;20200;-79
2022/10/03 01:02:41;;;;;;;11.00;2.30;;;11.80;99.90;;;;;;5021075;28;20679;-79
2022/10/03 01:05:15;;;;;;;10.67;2.33;;;11.70;99.90;;;;;;5014916;28;20193;-79
2022/10/03 01:08:18;;;;;;;13.77;2.73;;;11.70;99.90;;;;;;5024035;28;20220;-79
2022/10/03 01:10:53;;;;;;;16.20;2.87;;;11.60;99.90;;;;;;5027392;28;20570;-79
2022/10/03 01:13:31;;;;;;;13.03;2.70;;;11.70;99.90;;;;;;5030554;28;20209;-79
2022/10/03 01:16:06;;;;;;;14.07;2.77;;;11.70;99.90;;;;;;5022362;28;20683;-79
2022/10/03 01:18:46;;;;;;;10.57;2.37;;;11.60;99.90;;;;;;5030704;28;20567;-79
2022/10/03 01:21:27;;;;;;;12.57;2.30;;;11.60;99.90;;;;;;5021619;28;20196;-79
2022/10/03 01:24:26;;;;;;;10.83;2.10;;;11.60;99.90;;;;;;5027735;28;20214;-79
2022/10/03 01:26:57;;;;;;;10.27;2.00;;;11.50;99.90;;;;;;5022755;28;20281;-79
2022/10/03 01:32:25;;;;;;;10.47;1.97;;;11.40;99.90;;;;;;5028384;28;20579;-78
2022/10/03 01:35:01;;;;;;;12.97;2.30;;;11.40;99.90;;;;;;5015153;28;20592;-79
2022/10/03 01:37:37;;;;;;;6.40;1.80;;;11.40;99.90;;;;;;5013764;28;20572;-79
2022/10/03 01:40:13;;;;;;;9.87;3.17;;;11.50;99.90;;;;;;5028045;28;20584;-79
2022/10/03 01:42:54;;;;;;;10.70;2.50;;;11.50;99.90;;;;;;5020301;28;20200;-79
2022/10/03 01:45:31;;;;;;;10.67;2.20;;;11.50;99.90;;;;;;5025596;28;20204;-79
2022/10/03 01:48:02;;;;;;;10.93;2.47;;;11.60;99.90;;;;;;5030411;28;20203;-79
2022/10/03 01:50:35;;;;;;;9.37;2.17;;;11.50;99.90;;;;;;5016184;28;20567;-79
2022/10/03 01:53:09;;;;;;;15.77;3.07;;;11.60;99.90;;;;;;5014130;28;21930;-79
2022/10/03 01:55:49;;;;;;;6.57;2.00;;;11.60;99.90;;;;;;5031671;28;20684;-79
2022/10/03 01:58:25;;;;;;;12.33;2.00;;;11.60;99.90;;;;;;5019865;28;20204;-79
2022/10/03 02:00:59;;;;;;;11.40;2.33;;;11.70;99.90;;;;;;5023253;28;20199;-79
2022/10/03 02:03:31;;;;;;;14.33;2.30;;;11.60;99.90;;;;;;5030725;28;20234;-79
2022/10/03 02:06:07;;;;;;;13.80;2.47;;;11.60;99.90;;;;;;5016765;28;20573;-79
2022/10/03 02:08:48;;;;;;;10.20;2.33;;;11.50;99.90;;;;;;5080211;27;20200;-79
2022/10/03 02:11:28;;;;;;;11.60;2.27;;;11.50;99.90;;;;;;5020030;28;20310;-79
2022/10/03 02:14:00;;;;;;;13.40;2.20;;;11.50;99.90;;;;;;5014798;28;20627;-79
2022/10/03 02:16:39;;;;;;;10.90;1.77;;;11.40;99.90;;;;;;5013298;28;20225;-79
2022/10/03 02:19:20;;;;;;;13.40;2.37;;;11.50;99.90;;;;;;5012264;28;20837;-79
2022/10/03 02:21:49;;;;;;;11.03;2.33;;;11.50;99.90;;;;;;5024197;28;20291;-79
2022/10/03 02:24:31;;;;;;;13.07;2.90;;;11.50;99.90;;;;;;5031658;28;20196;-79
2022/10/03 02:27:33;;;;;;;9.77;2.33;;;11.40;99.90;;;;;;5028686;28;20219;-79
2022/10/03 02:30:17;;;;;;;12.57;1.83;;;11.50;99.90;;;;;;5030003;28;20199;-79
2022/10/03 02:33:11;;;;;;;15.37;2.07;;;11.50;99.90;;;;;;5016013;28;20660;-79
2022/10/03 02:36:06;;;;;;;12.27;2.30;;;11.50;99.90;;;;;;5016364;28;20234;-79
2022/10/03 02:39:05;;;;;;;11.03;2.60;;;11.50;99.90;;;;;;5014695;28;20204;-79
2022/10/03 02:41:51;;;;;;;11.57;2.43;;;11.50;99.90;;;;;;5013428;28;20211;-79
2022/10/03 02:44:58;;;;;;;11.13;2.10;;;11.50;99.90;;;;;;5055768;27;20256;-79
2022/10/03 02:47:56;;;;;;;13.90;2.13;;;11.50;99.90;;;;;;5042564;27;20220;-79
2022/10/03 02:51:03;;;;;;;7.63;2.80;;;11.40;99.90;;;;;;5037488;27;20206;-79
2022/10/03 02:54:15;;;;;;;11.63;2.13;;;11.40;99.90;;;;;;5094401;27;20222;-79
2022/10/03 02:57:11;;;;;;;10.10;1.90;;;11.40;99.90;;;;;;5029098;28;20249;-79
2022/10/03 03:00:05;;;;;;;10.20;2.20;;;11.60;99.90;;;;;;4991287;28;20204;-79
2022/10/03 03:02:53;;;;;;;6.57;1.83;;;11.40;99.90;;;;;;5013923;28;20233;-79
2022/10/03 03:05:32;;;;;;;11.43;1.97;;;11.50;99.90;;;;;;5025298;28;20200;-79
2022/10/03 03:08:34;;;;;;;10.27;2.07;;;11.50;99.90;;;;;;5012539;28;20671;-79
2022/10/03 03:11:32;;;;;;;11.87;1.97;;;11.60;99.90;;;;;;5012869;28;20204;-79
2022/10/03 03:14:25;;;;;;;13.97;2.03;;;11.60;99.90;;;;;;5014838;28;20211;-79
2022/10/03 03:17:07;;;;;;;11.83;2.30;;;11.60;99.90;;;;;;5029315;28;20232;-79
2022/10/03 03:20:19;;;;;;;9.87;2.17;;;11.60;99.90;;;;;;5026135;28;20263;-79
2022/10/03 03:23:02;;;;;;;10.87;2.30;;;11.60;99.90;;;;;;5036349;28;20203;-79
2022/10/03 03:25:44;;;;;;;7.50;1.90;;;11.60;99.90;;;;;;5028187;28;20204;-79
2022/10/03 03:28:25;;;;;;;10.33;2.47;;;11.50;99.90;;;;;;5010944;28;20204;-79
2022/10/03 03:30:58;;;;;;;10.80;2.03;;;11.60;99.90;;;;;;5021183;28;20208;-79
2022/10/03 03:33:37;;;;;;;15.17;2.50;;;11.50;99.90;;;;;;5027855;28;20197;-79
2022/10/03 03:36:13;;;;;;;10.70;1.90;;;11.40;99.90;;;;;;5028069;28;20223;-79
2022/10/03 03:38:48;;;;;;;13.23;2.47;;;11.40;99.90;;;;;;5012365;28;20219;-79
2022/10/03 03:41:37;;;;;;;8.53;2.23;;;11.40;99.90;;;;;;5025981;28;20597;-79
2022/10/03 03:44:24;;;;;;;12.90;2.27;;;11.40;99.90;;;;;;5025122;28;20231;-79
2022/10/03 03:47:13;;;;;;;11.53;2.07;;;11.40;99.90;;;;;;5026412;28;20215;-79
2022/10/03 03:49:58;;;;;;;8.47;2.00;;;11.30;99.90;;;;;;5030890;28;20204;-79
2022/10/03 03:52:42;;;;;;;9.50;1.90;;;11.40;99.90;;;;;;5030958;28;20584;-79
2022/10/03 03:55:39;;;;;;;12.40;2.57;;;11.30;99.90;;;;;;5020189;28;20457;-79
2022/10/03 03:58:22;;;;;;;9.10;2.20;;;11.40;99.90;;;;;;5030690;28;20242;-79
2022/10/03 04:01:07;;;;;;;14.40;2.63;;;11.40;99.90;;;;;;5021338;28;20200;-79
2022/10/03 04:03:50;;;;;;;6.60;1.90;;;11.40;99.90;;;;;;5031757;28;20203;-79
2022/10/03 04:06:30;;;;;;;8.77;2.30;;;11.40;99.90;;;;;;5013238;28;20219;-79
2022/10/03 04:09:18;;;;;;;8.53;2.33;;;11.30;99.90;;;;;;5020035;28;20659;-79
2022/10/03 04:11:58;;;;;;;6.13;1.87;;;11.40;99.90;;;;;;5071359;28;20222;-79
2022/10/03 04:15:07;;;;;;;14.40;2.00;;;11.40;99.90;;;;;;5031357;28;20406;-79
2022/10/03 04:21:10;;;;;;;11.60;2.33;;;11.40;99.90;;;;;;5033488;28;20202;-79
2022/10/03 04:23:50;;;;;;;9.37;1.90;;;11.30;99.90;;;;;;5033525;28;20569;-79
2022/10/03 04:26:28;;;;;;;9.70;2.03;;;11.30;99.90;;;;;;5026681;28;20224;-79
2022/10/03 04:29:20;;;;;;;9.60;1.73;;;11.30;99.90;;;;;;5030776;28;20231;-79
2022/10/03 04:31:55;;;;;;;12.33;2.40;;;11.40;99.90;;;;;;5025182;28;20232;-79
2022/10/03 04:34:36;;;;;;;6.60;1.80;;;11.40;99.90;;;;;;5025316;28;20234;-79
2022/10/03 04:37:14;;;;;;;8.20;1.93;;;11.40;99.90;;;;;;5014263;28;20220;-79
2022/10/03 04:39:50;;;;;;;9.80;2.10;;;11.50;99.90;;;;;;5016856;28;20740;-80
2022/10/03 04:42:27;;;;;;;7.33;1.90;;;11.50;99.90;;;;;;5033094;28;20199;-79
2022/10/03 04:45:23;;;;;;;12.47;1.93;;;11.50;99.90;;;;;;5030956;28;20211;-79
2022/10/03 04:47:56;;;;;;;9.27;2.67;;;11.50;99.90;;;;;;5014145;28;20227;-79
2022/10/03 04:50:35;;;;;;;11.43;2.60;;;11.50;99.90;;;;;;5014445;28;20201;-79
2022/10/03 04:53:24;;;;;;;9.17;2.13;;;11.50;99.90;;;;;;5065550;27;20675;-79
2022/10/03 04:55:56;;;;;;;11.53;1.97;;;11.50;99.90;;;;;;5030623;28;20281;-79
2022/10/03 04:58:34;;;;;;;8.03;1.73;;;11.50;99.90;;;;;;5013840;28;20208;-78
2022/10/03 05:01:13;;;;;;;11.40;2.10;;;11.50;99.90;;;;;;5022432;28;20211;-78
2022/10/03 05:03:54;;;;;;;10.67;2.03;;;11.50;99.90;;;;;;5028382;28;20281;-79
2022/10/03 05:06:31;;;;;;;14.03;2.17;;;11.40;99.90;;;;;;5027763;28;20269;-79
2022/10/03 05:09:11;;;;;;;8.83;2.40;;;11.40;99.90;;;;;;5028323;28;20682;-79
2022/10/03 05:11:48;;;;;;;10.53;2.70;;;11.50;99.90;;;;;;5032809;27;20214;-79
2022/10/03 05:14:24;;;;;;;10.60;2.20;;;11.40;99.90;;;;;;5033056;28;20210;-78
2022/10/03 05:17:02;;;;;;;10.73;1.93;;;11.40;99.90;;;;;;5047771;28;20310;-79
2022/10/03 05:19:48;;;;;;;11.07;2.37;;;11.40;99.90;;;;;;5027418;28;20639;-80
2022/10/03 05:22:30;;;;;;;10.87;2.53;;;11.50;99.90;;;;;;5033411;28;20685;-80
2022/10/03 05:25:10;;;;;;;11.80;3.30;;;11.50;99.90;;;;;;5038853;27;20238;-80
2022/10/03 05:27:44;;;;;;;9.10;2.43;;;11.40;99.90;;;;;;5029112;28;20691;-80
2022/10/03 05:30:21;;;;;;;9.17;1.90;;;11.40;99.90;;;;;;5023906;28;20656;-77
2022/10/03 05:32:51;;;;;;;13.70;2.17;;;11.40;99.90;;;;;;5040996;27;20196;-78
2022/10/03 05:35:31;;;;;;;9.00;2.27;;;11.40;99.90;;;;;;5041808;27;20204;-79
2022/10/03 05:38:20;;;;;;;11.97;2.17;;;11.40;99.90;;;;;;5028060;28;20206;-79
2022/10/03 05:41:00;;;;;;;7.33;1.73;;;11.40;99.90;;;;;;5028824;28;20207;-79
2022/10/03 05:43:44;;;;;;;12.50;2.07;;;11.40;99.90;;;;;;5034139;27;20204;-78
2022/10/03 05:46:20;;;;;;;6.20;1.63;;;11.40;99.90;;;;;;5026824;28;20289;-78
2022/10/03 05:48:50;;;;;;;12.53;2.07;;;11.50;99.90;;;;;;5061821;27;20664;-78
2022/10/03 05:51:53;;;;;;;7.47;1.97;;;11.40;99.90;;;;;;5024853;28;20197;-78
2022/10/03 05:54:45;;;;;;;6.43;1.73;;;11.40;99.90;;;;;;5026862;28;20215;-78
2022/10/03 05:57:51;;;;;;;14.30;2.17;;;11.40;99.90;;;;;;5058237;27;20228;-79
2022/10/03 06:00:21;;;;;;;11.23;1.97;;;11.50;99.90;;;;;;5027773;28;20200;-78
2022/10/03 06:03:16;;;;;;;7.80;1.93;;;11.50;99.90;;;;;;5027442;28;20695;-78
2022/10/03 06:06:00;;;;;;;5.70;1.80;;;11.50;99.90;;;;;;5043837;27;20200;-77
2022/10/03 06:09:13;;;;;;;10.50;1.80;;;11.50;99.90;;;;;;5030133;27;20204;-78
2022/10/03 06:12:06;;;;;;;9.23;1.97;;;11.50;99.90;;;;;;5030845;28;20215;-79
2022/10/03 06:14:48;;;;;;;6.43;1.73;;;11.50;99.90;;;;;;5027471;28;20200;-78
2022/10/03 06:17:48;;;;;;;13.13;2.23;;;11.50;99.90;;;;;;5027205;28;20272;-78
2022/10/03 06:20:46;;;;;;;10.43;1.73;;;11.50;99.90;;;;;;4971288;28;20578;-79
2022/10/03 06:23:38;;;;;;;10.47;2.00;;;11.50;99.90;;;;;;5025345;28;20210;-79
2022/10/03 06:26:56;;;;;;;7.17;1.63;;;11.60;99.90;;;;;;5052256;28;20311;-80
2022/10/03 06:29:53;;;;;;;9.87;2.10;;;11.60;99.90;;;;;;5045852;28;20218;-80
2022/10/03 06:33:02;;;;;;;11.20;2.53;;;11.60;99.90;;;;;;5048022;28;20252;-80
2022/10/03 06:35:59;;;;;;;9.87;1.80;;;11.70;99.90;;;;;;5031274;28;20195;-80
2022/10/03 06:38:52;;;;;;;10.63;3.20;;;11.70;99.90;;;;;;5049915;27;20226;-80
2022/10/03 06:42:08;;;;;;;10.97;2.33;;;11.60;99.90;;;;;;5027651;28;20208;-83
2022/10/03 06:44:52;;;;;;;9.17;2.03;;;11.60;99.90;;;;;;5031945;28;20210;-79
2022/10/03 06:47:36;;;;;;;9.30;2.20;;;11.70;99.90;;;;;;5024465;27;20217;-79
2022/10/03 06:50:41;;;;;;;8.17;2.20;;;11.70;99.90;;;;;;5029742;27;20204;-79
2022/10/03 06:53:47;;;;;;;8.23;1.83;;;11.80;99.90;;;;;;5014168;28;20234;-79
2022/10/03 06:56:59;;;;;;;11.80;1.90;;;11.90;99.90;;;;;;5017782;28;20239;-79
2022/10/03 06:59:53;;;;;;;10.87;1.97;;;11.90;99.90;;;;;;5034893;28;20233;-79
2022/10/03 07:02:56;;;;;;;8.37;1.93;;;12.00;99.90;;;;;;5035749;27;20196;-78
2022/10/03 07:05:56;;;;;;;10.50;2.53;;;12.10;99.90;;;;;;5022009;28;20211;-81
2022/10/03 07:08:57;;;;;;;7.37;2.13;;;12.10;99.90;;;;;;5022276;28;20201;-79
2022/10/03 07:11:43;;;;;;;12.27;2.17;;;12.10;99.90;;;;;;5023984;28;20294;-79
2022/10/03 07:14:35;;;;;;;10.40;2.47;;;12.20;99.90;;;;;;5025290;28;20687;-79
2022/10/03 07:17:41;;;;;;;12.03;2.50;;;12.30;99.90;;;;;;5023613;28;21022;-79
2022/10/03 07:20:26;;;;;;;5.50;1.80;;;12.30;99.90;;;;;;5026805;28;20285;-78
2022/10/03 07:23:30;;;;;;;10.93;2.70;;;12.30;99.90;;;;;;5029568;28;20211;-80
2022/10/03 07:26:41;;;;;;;8.10;1.87;;;12.30;99.90;;;;;;5026321;28;20220;-80
2022/10/03 07:29:19;;;;;;;8.90;2.07;;;12.20;99.90;;;;;;5029921;28;20204;-80
2022/10/03 07:32:14;;;;;;;6.43;2.23;;;12.30;99.90;;;;;;5034288;28;20202;-79
2022/10/03 07:35:16;;;;;;;9.27;2.10;;;12.30;99.90;;;;;;5056746;27;20338;-79
2022/10/03 07:41:21;;;;;;;6.10;1.73;;;12.50;99.90;;;;;;5034630;28;20223;-80
2022/10/03 07:44:27;;;;;;;11.10;3.07;;;12.60;99.90;;;;;;5028531;28;20231;-79
2022/10/03 07:47:34;;;;;;;8.07;2.07;;;12.70;99.90;;;;;;5034813;28;20247;-79
2022/10/03 07:50:28;;;;;;;9.73;1.73;;;12.70;99.90;;;;;;5029855;28;20596;-80
2022/10/03 07:53:18;;;;;;;14.23;2.27;;;12.80;99.90;;;;;;5030552;28;20216;-80
2022/10/03 07:56:03;;;;;;;10.40;1.73;;;12.90;99.90;;;;;;5033059;28;20199;-80
2022/10/03 07:59:04;;;;;;;9.00;2.10;;;13.00;99.90;;;;;;5028686;28;20226;-80
2022/10/03 08:01:54;;;;;;;9.03;1.80;;;13.00;99.90;;;;;;5024436;28;20319;-81
2022/10/03 08:04:56;;;;;;;10.23;1.73;;;13.00;99.90;;;;;;5023098;28;20689;-79
2022/10/03 08:07:44;;;;;;;8.60;2.00;;;13.10;99.90;;;;;;5030183;28;20215;-80
2022/10/03 08:10:28;;;;;;;8.63;1.90;;;13.10;99.90;;;;;;5036623;28;20203;-81
2022/10/03 08:13:24;;;;;;;8.57;2.13;;;13.20;99.90;;;;;;5028472;28;20215;-81
2022/10/03 08:16:23;;;;;;;10.53;2.07;;;13.30;99.90;;;;;;5026380;28;20697;-81
2022/10/03 08:19:15;;;;;;;10.30;2.07;;;13.40;99.90;;;;;;5044222;28;20205;-81
2022/10/03 08:21:55;;;;;;;9.37;2.10;;;13.40;99.90;;;;;;5028585;28;20212;-81
2022/10/03 08:24:36;;;;;;;10.83;2.37;;;13.50;99.90;;;;;;5027284;28;20204;-81
2022/10/03 08:27:17;;;;;;;7.67;1.60;;;13.40;99.90;;;;;;5024404;28;20219;-81
2022/10/03 08:30:04;;;;;;;4.80;1.80;;;13.50;99.90;;;;;;5028758;28;20208;-80
2022/10/03 08:32:56;;;;;;;6.60;1.50;;;13.50;99.90;;;;;;5018662;28;20206;-79
2022/10/03 08:35:53;;;;;;;7.77;1.53;;;13.60;99.90;;;;;;5026636;28;20204;-80
2022/10/03 08:38:35;;;;;;;11.13;1.90;;;13.70;99.90;;;;;;5023734;28;20224;-80
2022/10/03 08:41:37;;;;;;;13.27;2.37;;;13.80;99.90;;;;;;5021266;28;20258;-80
2022/10/03 08:44:26;;;;;;;9.10;2.00;;;13.80;99.90;;;;;;5070764;28;20581;-80
2022/10/03 08:47:22;;;;;;;10.67;2.20;;;14.00;99.90;;;;;;5028669;28;20212;-81
2022/10/03 08:50:19;;;;;;;10.50;2.20;;;14.10;99.90;;;;;;5029225;28;20197;-80
2022/10/03 08:53:11;;;;;;;8.53;1.77;;;14.10;99.90;;;;;;5029621;28;20378;-80
2022/10/03 08:55:49;;;;;;;9.70;2.07;;;14.20;99.90;;;;;;5024386;28;20711;-80
2022/10/03 08:58:58;;;;;;;7.53;1.73;;;14.30;99.90;;;;;;5028676;28;20727;-80
2022/10/03 09:02:08;;;;;;;10.80;2.27;;;14.40;99.90;;;;;;5020388;28;20569;-80
2022/10/03 09:05:04;;;;;;;8.63;2.23;;;14.40;99.90;;;;;;5037079;27;20212;-80
2022/10/03 09:08:02;;;;;;;11.97;2.07;;;14.60;99.90;;;;;;5030570;28;20219;-80
2022/10/03 09:10:51;;;;;;;12.50;3.33;;;14.70;99.90;;;;;;5029356;28;20578;-79
2022/10/03 09:14:06;;;;;;;11.63;3.43;;;14.90;99.90;;;;;;5021519;28;20214;-79
2022/10/03 09:16:57;;;;;;;13.05;2.00;;;15.30;99.90;;;;;;5028500;28;20708;-79
2022/10/03 09:20:03;;;;;;;8.98;1.90;;;15.40;99.90;;;;;;5014432;28;20208;-78
2022/10/03 09:22:49;;;;;;;5.88;1.60;;;15.70;99.90;;;;;;5042015;27;20206;-79
2022/10/03 09:25:39;;;;;;;8.05;2.10;;;15.80;99.90;;;;;;5059385;27;20226;-79
2022/10/03 09:28:35;;;;;;;11.90;2.43;;;15.40;99.90;;;;;;5035799;28;20298;-79
2022/10/03 09:31:18;;;;;;;9.88;2.47;;;15.50;99.90;;;;;;5024171;28;20200;-78
2022/10/03 09:34:14;;;;;;;11.68;2.78;;;15.50;99.90;;;;;;5022747;28;20205;-79
2022/10/03 09:37:18;;;;;;;10.38;2.80;;;15.60;99.90;;;;;;5035326;28;20234;-79
2022/10/03 09:40:15;;;;;;;10.23;3.05;;;16.10;99.90;;;;;;5025858;28;20565;-78
2022/10/03 09:43:06;;;;;;;8.25;2.40;;;16.50;99.90;;;;;;5027361;28;20603;-79
2022/10/03 09:45:59;;;;;;;12.05;1.95;;;16.70;1.00;;;;;;5029792;28;20565;-80
2022/10/03 09:48:57;;;;;;;8.07;2.30;;;16.40;1.00;;;;;;5033714;27;20211;-79
2022/10/03 09:51:38;;;;;;;11.73;1.70;;;16.40;1.00;;;;;;5034816;27;20196;-79
2022/10/03 09:54:42;;;;;;;11.63;2.83;;;16.20;99.90;;;;;;5042965;27;20221;-79
2022/10/03 09:57:41;;;;;;;6.05;2.17;;;16.60;99.90;;;;;;5026421;28;20232;-79
2022/10/03 10:00:26;;;;;;;10.95;2.00;;;16.40;1.00;;;;;;5048222;27;20196;-80
2022/10/03 10:03:10;;;;;;;8.85;1.85;;;16.40;1.00;;;;;;5048132;27;20192;-78
2022/10/03 10:06:07;;;;;;;8.20;1.77;;;16.30;1.00;;;;;;5029063;28;20196;-79
2022/10/03 10:08:55;;;;;;;12.60;2.50;;;16.40;1.00;;;;;;5059305;27;20201;-81
2022/10/03 10:11:47;;;;;;;6.05;1.75;;;16.30;1.00;;;;;;5026657;28;20231;-79
2022/10/03 10:14:54;;;;;;;5.45;1.92;;;16.50;1.00;;;;;;5034494;28;20220;-80
2022/10/03 10:17:56;;;;;;;10.38;2.00;;;16.30;1.00;;;;;;5030561;28;20241;-79
2022/10/03 10:20:51;;;;;;;6.57;2.00;;;16.20;1.00;;;;;;5024611;28;20209;-78
2022/10/03 10:23:31;;;;;;;8.00;1.85;;;16.00;1.00;;;;;;5031152;28;20223;-80
2022/10/03 10:26:46;;;;;;;14.80;3.22;;;16.20;1.00;;;;;;5039481;27;20256;-79
2022/10/03 10:29:41;;;;;;;12.60;2.65;;;16.20;1.00;;;;;;5034940;28;20200;-79
2022/10/03 10:32:52;;;;;;;7.53;1.75;;;16.30;1.00;;;;;;5052387;27;20208;-79
2022/10/03 10:35:59;;;;;;;10.15;2.20;;;16.20;1.00;;;;;;5036623;28;20199;-79
2022/10/03 10:39:04;;;;;;;6.15;1.67;;;16.10;1.00;;;;;;5031679;28;20302;-81
2022/10/03 10:42:12;;;;;;;7.07;1.92;;;16.10;1.00;;;;;;5040125;27;20246;-79
2022/10/03 10:45:21;;;;;;;9.52;1.95;;;16.10;1.00;;;;;;5024749;27;20487;-78
2022/10/03 10:48:37;;;;;;;5.85;1.70;;;16.20;1.00;;;;;;5026206;28;20219;-78
2022/10/03 10:51:38;;;;;;;14.77;2.35;;;16.30;1.00;;;;;;5025891;27;20212;-78
2022/10/03 10:54:41;;;;;;;8.93;2.45;;;16.40;1.00;;;;;;5027050;27;20698;-78
2022/10/03 10:57:24;;;;;;;6.60;1.50;;;16.20;99.90;;;;;;5021010;28;20231;-78
2022/10/03 11:00:28;;;;;;;7.28;2.35;;;16.30;99.20;;;;;;5039898;27;20302;-79
2022/10/03 11:03:28;;;;;;;6.45;1.52;;;16.50;1.00;;;;;;5032540;27;20663;-78
2022/10/03 11:06:46;;;;;;;9.85;2.38;;;16.60;99.90;;;;;;4988982;28;20242;-79
2022/10/03 11:10:05;;;;;;;8.38;1.60;;;16.30;1.00;;;;;;5022772;28;20206;-79
2022/10/03 11:13:01;;;;;;;7.90;1.77;;;16.40;1.00;;;;;;5037481;27;20317;-79
2022/10/03 11:16:11;;;;;;;11.05;2.00;;;16.50;99.90;;;;;;5040973;27;20205;-79
2022/10/03 11:19:19;;;;;;;5.97;1.40;;;16.40;99.90;;;;;;5029770;27;20223;-78
2022/10/03 11:22:26;;;;;;;7.72;1.98;;;16.50;99.90;;;;;;5050330;27;20203;-78
2022/10/03 11:25:30;;;;;;;8.23;2.10;;;16.60;99.90;;;;;;5018826;28;20214;-79
2022/10/03 11:28:31;;;;;;;9.48;2.40;;;16.40;1.00;;;;;;5022443;28;20204;-79
2022/10/03 11:31:40;;;;;;;6.05;1.50;;;16.40;1.00;;;;;;5042211;27;20208;-78
2022/10/03 11:34:42;;;;;;;9.30;1.90;;;16.70;1.00;;;;;;5063923;28;20213;-78
2022/10/03 11:37:39;;;;;;;5.97;1.35;;;17.00;1.00;;;;;;5047316;27;20597;-78
2022/10/03 11:40:22;;;;;;;6.70;1.67;;;17.70;26.20;;;;;;5019790;28;20239;-79
2022/10/03 11:42:58;;;;;;;8.18;1.58;;;18.00;1.00;;;;;;5018490;28;20559;-78
2022/10/03 11:45:32;;;;;;;5.95;1.77;;;18.20;1.00;;;;;;5053042;27;20208;-77
2022/10/03 11:48:29;;;;;;;8.77;1.40;;;18.00;1.00;;;;;;5017900;28;20730;-78
2022/10/03 11:51:00;;;;;;;6.10;1.67;;;17.90;99.90;;;;;;5018874;28;20216;-78
2022/10/03 11:53:42;;;;;;;4.63;1.42;;;17.80;99.90;;;;;;5020933;28;20216;-79
2022/10/03 11:56:24;;;;;;;8.80;2.30;;;17.80;1.00;;;;;;5024239;28;20223;-79
2022/10/03 11:59:04;;;;;;;7.25;1.85;;;18.00;1.00;;;;;;5025524;28;20849;-79
2022/10/03 12:01:45;;;;;;;5.60;1.48;;;17.70;1.00;;;;;;5027492;28;20207;-80
2022/10/03 12:04:20;;;;;;;8.05;2.08;;;17.60;1.00;;;;;;5024049;28;20216;-79
2022/10/03 12:09:57;;;;;;;4.43;1.27;;;17.30;95.10;;;;;;5024172;28;20279;-79
2022/10/03 12:12:34;;;;;;;5.07;1.10;;;17.20;72.20;;;;;;5025752;28;20200;-79
2022/10/03 12:15:14;;;;;;;6.30;1.38;;;17.00;99.90;;;;;;5031459;28;20199;-79
2022/10/03 12:17:49;;;;;;;4.13;1.15;;;17.00;99.90;;;;;;5039801;28;20228;-79
2022/10/03 12:20:21;;;;;;;6.30;1.23;;;16.80;99.90;;;;;;5023262;28;20212;-79
2022/10/03 12:22:52;;;;;;;6.65;1.20;;;16.60;1.00;;;;;;5027861;28;20204;-80
2022/10/03 12:25:22;;;;;;;4.70;1.58;;;16.50;1.00;;;;;;5030642;28;20243;-79
2022/10/03 12:28:00;;;;;;;8.73;1.90;;;16.50;1.00;;;;;;5033556;28;20237;-79
2022/10/03 12:30:32;;;;;;;12.30;1.92;;;16.40;99.90;;;;;;5030971;28;20720;-79
2022/10/03 12:33:26;;;;;;;3.67;1.05;;;16.50;99.90;;;;;;5029097;28;20918;-79
2022/10/03 12:35:59;;;;;;;5.20;1.45;;;16.60;1.00;;;;;;5045527;27;20702;-80
2022/10/03 12:38:38;;;;;;;6.97;1.23;;;16.70;1.00;;;;;;5032574;28;20601;-80
2022/10/03 12:41:19;;;;;;;6.13;1.60;;;16.70;99.90;;;;;;5031694;28;20219;-80
2022/10/03 12:44:04;;;;;;;8.57;1.50;;;16.70;1.00;;;;;;5037229;27;20275;-79
2022/10/03 12:46:39;;;;;;;4.28;2.08;;;16.80;99.90;;;;;;5032886;27;20251;-80
2022/10/03 12:49:15;;;;;;;7.40;2.85;;;16.70;99.90;;;;;;5036631;27;20203;-80
2022/10/03 12:51:53;;;;;;;6.35;1.83;;;16.80;99.90;;;;;;5030071;28;20196;-79
2022/10/03 12:54:46;;;;;;;8.30;1.95;;;16.60;1.00;;;;;;5065109;27;20215;-80
2022/10/03 12:57:54;;;;;;;6.10;1.48;;;16.60;1.00;;;;;;5029863;28;20589;-78
2022/10/03 13:00:26;;;;;;;4.28;1.60;;;16.70;99.90;;;;;;5028073;28;20201;-79
2022/10/03 13:03:12;;;;;;;10.85;4.80;;;16.70;99.90;;;;;;5035433;28;20305;-79
2022/10/03 13:06:02;;;;;;;8.15;2.22;;;16.90;99.90;;;;;;5025203;28;20200;-80
2022/10/03 13:08:43;;;;;;;6.10;2.00;;;16.70;1.00;;;;;;5046241;27;20204;-79
2022/10/03 13:11:28;;;;;;;7.10;1.67;;;16.80;1.00;;;;;;5028359;27;20543;-79
2022/10/03 13:14:12;;;;;;;5.30;1.48;;;16.80;1.00;;;;;;5022573;28;20581;-79
2022/10/03 13:16:50;;;;;;;6.63;1.58;;;16.80;1.00;;;;;;5030522;28;20791;-80
2022/10/03 13:19:20;;;;;;;5.10;1.80;;;16.90;99.90;;;;;;5032023;28;20715;-81
2022/10/03 13:22:05;;;;;;;8.82;2.53;;;16.90;99.90;;;;;;5033355;27;20214;-81
2022/10/03 13:24:36;;;;;;;5.70;1.88;;;16.90;1.00;;;;;;5036896;27;20616;-80
2022/10/03 13:27:17;;;;;;;7.13;1.77;;;16.90;1.00;;;;;;5026816;28;20228;-79
2022/10/03 13:29:46;;;;;;;7.55;1.90;;;17.00;1.00;;;;;;5039389;27;20211;-78
2022/10/03 13:32:18;;;;;;;4.70;1.58;;;17.10;1.00;;;;;;5042648;28;20207;-80
2022/10/03 13:38:05;;;;;;;6.28;2.45;;;17.10;99.90;;;;;;5030676;28;20221;-82
2022/10/03 13:40:35;;;;;;;6.10;1.52;;;17.00;1.00;;;;;;5033667;28;20208;-80
2022/10/03 13:43:03;;;;;;;8.15;1.85;;;16.90;1.00;;;;;;5034067;27;20212;-80
2022/10/03 13:45:32;;;;;;;3.47;1.67;;;16.90;99.90;;;;;;5055807;27;20563;-83
2022/10/03 13:48:06;;;;;;;5.95;1.83;;;16.90;1.00;;;;;;5030199;28;20211;-81
2022/10/03 13:50:40;;;;;;;6.78;1.58;;;16.80;99.90;;;;;;5035913;28;20203;-81
2022/10/03 13:53:18;;;;;;;7.70;1.60;;;17.00;1.00;;;;;;5034487;28;20216;-82
2022/10/03 13:55:48;;;;;;;5.05;1.90;;;17.10;1.00;;;;;;5050436;27;20208;-82
2022/10/03 13:58:36;;;;;;;4.05;1.45;;;17.30;1.00;;;;;;5033387;28;20253;-80
2022/10/03 14:01:33;;;;;;;4.45;1.38;;;17.50;99.90;;;;;;5030607;28;20203;-81
2022/10/03 14:04:31;;;;;;;5.78;1.60;;;17.50;1.00;;;;;;5044956;27;20243;-81
2022/10/03 14:07:07;;;;;;;6.30;1.77;;;17.50;99.90;;;;;;5035049;28;20241;-81
2022/10/03 14:09:47;;;;;;;4.43;1.85;;;17.60;1.00;;;;;;5032814;28;20567;-82
2022/10/03 14:12:25;;;;;;;5.30;1.52;;;17.50;1.00;;;;;;5030353;28;20246;-81
2022/10/03 14:15:22;;;;;;;5.15;1.77;;;17.70;99.90;;;;;;5031706;28;20200;-80
2022/10/03 14:17:59;;;;;;;5.63;1.38;;;17.60;99.90;;;;;;5032350;28;20697;-81
2022/10/03 14:20:31;;;;;;;4.93;2.03;;;17.70;99.90;;;;;;5028343;28;20211;-81
2022/10/03 14:23:12;;;;;;;5.07;1.70;;;17.70;99.90;;;;;;5037233;28;20208;-81
2022/10/03 14:25:46;;;;;;;5.07;1.50;;;17.90;1.00;;;;;;5034073;28;20728;-81
2022/10/03 14:28:19;;;;;;;5.93;2.00;;;17.80;1.00;;;;;;5033381;28;20234;-81
2022/10/03 14:30:57;;;;;;;5.85;1.85;;;17.80;1.00;;;;;;5034053;27;20216;-81
2022/10/03 14:33:34;;;;;;;3.45;1.50;;;17.80;1.00;;;;;;5030433;27;20362;-82
2022/10/03 14:36:15;;;;;;;4.30;1.23;;;17.90;1.00;;;;;;5035560;28;20706;-82
2022/10/03 14:39:01;;;;;;;3.83;1.02;;;17.70;1.00;;;;;;5037111;28;20223;-81
2022/10/03 14:41:44;;;;;;;3.95;1.15;;;17.30;99.90;;;;;;5034986;28;20664;-81
2022/10/03 14:44:16;;;;;;;4.80;1.05;;;17.20;99.90;;;;;;5032229;28;20328;-81
2022/10/03 14:46:50;;;;;;;5.68;1.15;;;17.20;1.00;;;;;;5035045;28;20215;-81